Walnut Springs, Texas
Current Conditions -  °F | °C
As of 1:55 PM on Wednesday 17 Dec 2014 (Local Time) from KGDJ Reporting Station
Overcast Overcast  
Wind Chill: 45°   Ceiling: 2800
Heat Index: 49°   Visibility: 10mi
Dew Point: 36°   Wind: 12mph
Humidity: 61%   Direction: 120°ESE
Pressure: 30.08"   Gusts: NA
Location:  32.06°N, 97.75°W
Report Text: KGDJ 171955Z AUTO 12010KT 10SM OVC028 10/02 A3008 RMK AO2 LTG DSNT NW T00960024
Loading
Personal Weather Stations






























Interactive Weather Map New forecast layout! Learn more

10-Day Weather Forecast

Advertisements
Track Severe Weather on mobile